EDDN 210150Z 34002KT 9999 BKN048 09/07 Q1025 EDDN 210120Z 34003KT 9999 BKN048 09/07 Q1024 EDDN 210050Z VRB02KT 9999 BKN048 10/07 Q1024 EDDN 210020Z 29003KT 9999 BKN048 10/07 Q1024 EDDN 202350Z VRB01KT 9999 BKN048 10/06 Q1024 EDDN 202320Z VRB02KT 9999 BKN048 10/06 Q1024 EDDN 202250Z VRB02KT 9999 BKN047 10/06 Q1024 EDDN 202220Z 31003KT 260V360 9999 BKN047 11/06 Q1024 EDDN 202150Z VRB02KT 9999 BKN047 11/06 Q1024 EDDN 202120Z VRB02KT 9999 BKN047 11/06 Q1023 EDDN 202050Z 36003KT 9999 BKN047 11/06 Q1023 EDDN 202020Z 07005KT 9999 OVC047 12/06 Q1023 EDDN 201950Z 05004KT 020V090 9999 OVC046 12/06 Q1023 NOSIG EDDN 201920Z 04004KT 020V090 9999 OVC046 12/06 Q1023 NOSIG EDDN 201850Z 05004KT 010V080 9999 OVC046 12/06 Q1022 NOSIG EDDN 201820Z 08004KT 9999 FEW035 OVC045 12/07 Q1022 NOSIG EDDN 201750Z 03003KT 9999 FEW035 OVC045 13/07 Q1022 NOSIG EDDN 201720Z 02003KT 9999 FEW035 BKN045 13/07 Q1021 NOSIG EDDN 201650Z 04002KT 9999 FEW035 BKN045 13/07 Q1021 NOSIG EDDN 201620Z 04003KT 360V080 9999 FEW035 BKN045 13/07 Q1021 NOSIG EDDN 201550Z 04004KT 360V060 9999 FEW035 BKN045 14/07 Q1021 NOSIG EDDN 201520Z 02004KT 340V050 9999 SCT035 BKN048 14/06 Q1020 NOSIG EDDN 201450Z VRB03KT 9999 SCT035 BKN048 15/07 Q1020 NOSIG EDDN 201420Z VRB03KT 9999 SCT036 BKN048 15/07 Q1020 NOSIG EDDN 201350Z VRB04KT 9999 SCT035 BKN048 15/06 Q1020 NOSIG EDDN 201320Z 34004KT 300V020 9999 SCT035 BKN048 15/06 Q1020 NOSIG EDDN 201250Z VRB02KT 9999 SCT035 SCT048 15/06 Q1020 NOSIG EDDN 201220Z VRB03KT 9999 SCT033 SCT048 15/06 Q1020 NOSIG EDDN 201150Z VRB02KT 9999 FEW033 BKN048 15/06 Q1020 NOSIG EDDN 201120Z VRB03KT 9999 FEW030 BKN048 15/06 Q1020 NOSIG EDDN 201050Z VRB03KT 9999 FEW027 BKN046 14/06 Q1020 NOSIG EDDN 201020Z 08004KT 010V120 9999 FEW025 OVC041 13/06 Q1020 NOSIG EDDN 200950Z 05004KT 020V080 9999 OVC038 12/06 Q1020 NOSIG EDDN 200920Z 06003KT 360V100 9999 OVC036 12/06 Q1020 NOSIG EDDN 200850Z 06004KT 030V120 9999 OVC036 11/06 Q1020 NOSIG EDDN 200820Z 05005KT 020V090 9999 OVC035 11/07 Q1020 NOSIG EDDN 200750Z 04003KT 350V060 9999 OVC035 11/07 Q1019 NOSIG EDDN 200720Z VRB02KT 9999 OVC036 11/08 Q1019 NOSIG EDDN 200650Z 01003KT 350V050 9999 OVC037 10/07 Q1019 NOSIG EDDN 200620Z VRB02KT 9999 OVC038 10/07 Q1019 NOSIG EDDN 200550Z 04003KT 9999 OVC039 10/07 Q1019 NOSIG EDDN 200520Z 02003KT 9999 OVC040 10/07 Q1018 NOSIG EDDN 200450Z VRB02KT 9999 OVC040 10/07 Q1018 NOSIG EDDN 200420Z 02004KT 9999 OVC039 10/07 Q1018 NOSIG EDDN 200350Z 03003KT 9999 BKN037 10/07 Q1018 EDDN 200320Z 11005KT 9999 BKN035 10/07 Q1017 EDDN 200250Z 09004KT 9999 BKN033 10/07 Q1017 EDDN 200220Z 06004KT 9999 BKN031 11/07 Q1017 EDDN 200150Z 06003KT 030V090 9999 FEW020 BKN031 11/07 Q1017 EDDN 200120Z VRB02KT 9999 FEW020 BKN032 11/07 Q1017 EDDN 200050Z 08003KT 040V120 9999 BKN031 11/07 Q1017 EDDN 200020Z 05004KT 010V080 9999 BKN031 11/08 Q1017 EDDN 192350Z 03004KT 9999 FEW018 BKN033 11/09 Q1017 EDDN 192320Z 03004KT 9999 FEW018 BKN034 11/09 Q1017 EDDN 192250Z 01004KT 330V040 9999 SCT018 BKN035 11/09 Q1017 EDDN 192220Z 03004KT 9999 FEW018 BKN037 11/09 Q1017 EDDN 192150Z 01004KT 9999 FEW019 BKN038 12/09 Q1017 EDDN 192120Z 01005KT 9999 FEW018 BKN040 12/09 Q1017 EDDN 192050Z 36004KT 9999 FEW018 BKN040 12/09 Q1017 EDDN 192020Z 36005KT 9999 FEW018 BKN039 12/09 Q1016 EDDN 191950Z 01005KT 9999 BKN017 BKN042 12/09 Q1016 NOSIG EDDN 191920Z 35003KT 320V020 9999 FEW032 BKN041 12/09 Q1016 NOSIG EDDN 191850Z 35003KT 310V030 9999 BKN044 12/09 Q1016 NOSIG EDDN 191820Z 02006KT 340V060 9999 SCT041 13/09 Q1015 NOSIG EDDN 191750Z 02008KT 9999 BKN042 13/09 Q1015 NOSIG EDDN 191720Z 02006KT 350V050 9999 FEW025 BKN040 14/10 Q1015 NOSIG EDDN 191650Z 02006KT 9999 FEW025 SCT040 14/10 Q1015 NOSIG EDDN 191620Z 03006KT 9999 FEW025 SCT045 14/10 Q1014 NOSIG EDDN 191550Z 02007KT 9999 FEW025 SCT045 16/10 Q1014 NOSIG EDDN 191520Z 04008KT 360V060 9999 FEW025 BKN045 16/10 Q1014 NOSIG EDDN 191450Z 03007KT 360V060 9999 FEW025 BKN044 16/10 Q1014 NOSIG EDDN 191420Z 03008KT 9999 FEW025 BKN040 16/11 Q1014 NOSIG

METAR Messwerte

Zurück zur Übersicht

Ort
m ü. NN
Zeit Temperatur Taupunkt Rel.
Luftfeuchte
Luftdruck:
Altimeter
NN
Station
Wind in Beaufort
(Knoten)
Sichtweite
(Meter)
Wolken
(Meter über Grund)
Wettererscheinung
Nürnberg
312
Di 21.09. 03:509787 %1025
1026
988
NNW 1 (2)>= 10000Stark bewölkt (1500) 
Nürnberg
312
Di 21.09. 03:209787 %1024
1025
987
NNW 2 (3)>= 10000Stark bewölkt (1500) 
Nürnberg
312
Di 21.09. 02:5010782 %1024
1025
987
Uml 1 (2)>= 10000Stark bewölkt (1500) 
Nürnberg
312
Di 21.09. 02:2010782 %1024
1025
987
WNW 2 (3)>= 10000Stark bewölkt (1500) 
Nürnberg
312
Di 21.09. 01:5010676 %1024
1025
987
Uml 1 (1)>= 10000Stark bewölkt (1500) 
Nürnberg
312
Di 21.09. 01:2010676 %1024
1025
987
Uml 1 (2)>= 10000Stark bewölkt (1500) 
Nürnberg
312
Di 21.09. 00:5010676 %1024
1025
987
Uml 1 (2)>= 10000Stark bewölkt (1400) 
Nürnberg
312
Di 21.09. 00:2011671 %1024
1025
987
NW 2 (3)
W - N
>= 10000Stark bewölkt (1400) 
Nürnberg
312
Mo 20.09. 23:5011671 %1024
1025
987
Uml 1 (2)>= 10000Stark bewölkt (1400) 
Nürnberg
312
Mo 20.09. 23:2011671 %1023
1024
986
Uml 1 (2)>= 10000Stark bewölkt (1400) 
Nürnberg
312
Mo 20.09. 22:5011671 %1023
1024
986
N 2 (3)>= 10000Stark bewölkt (1400) 
Nürnberg
312
Mo 20.09. 22:2012667 %1023
1023
986
ONO 2 (5)>= 10000Bedeckt (1400) 
Nürnberg
312
Mo 20.09. 21:5012667 %1023
1023
986
NO 2 (4)
NNO - O
>= 10000Bedeckt (1400) 
Nürnberg
312
Mo 20.09. 21:2012667 %1023
1023
986
NO 2 (4)
NNO - O
>= 10000Bedeckt (1400) 
Nürnberg
312
Mo 20.09. 20:5012667 %1022
1022
985
NO 2 (4)
N - O
>= 10000Bedeckt (1400) 
Nürnberg
312
Mo 20.09. 20:2012771 %1022
1022
985
O 2 (4)>= 10000Bedeckt (1400)
Leicht bewölkt (1100)
 
Nürnberg
312
Mo 20.09. 19:5013767 %1022
1022
985
NNO 2 (3)>= 10000Bedeckt (1400)
Leicht bewölkt (1100)
 
Nürnberg
312
Mo 20.09. 19:2013767 %1021
1021
984
NNO 2 (3)>= 10000Stark bewölkt (1400)
Leicht bewölkt (1100)
 
Nürnberg
312
Mo 20.09. 18:5013767 %1021
1021
984
NO 1 (2)>= 10000Stark bewölkt (1400)
Leicht bewölkt (1100)
 
Nürnberg
312
Mo 20.09. 18:2013767 %1021
1021
984
NO 2 (3)
N - O
>= 10000Stark bewölkt (1400)
Leicht bewölkt (1100)
 
Nürnberg
312
Mo 20.09. 17:5014763 %1021
1021
984
NO 2 (4)
N - ONO
>= 10000Stark bewölkt (1400)
Leicht bewölkt (1100)
 
Nürnberg
312
Mo 20.09. 17:2014658 %1020
1020
983
NNO 2 (4)
NNW - NO
>= 10000Stark bewölkt (1500)
Wolkig (1100)
 
Nürnberg
312
Mo 20.09. 16:5015759 %1020
1020
983
Uml 2 (3)>= 10000Stark bewölkt (1500)
Wolkig (1100)
 
Nürnberg
312
Mo 20.09. 16:2015759 %1020
1020
983
Uml 2 (3)>= 10000Stark bewölkt (1500)
Wolkig (1100)
 
Nürnberg
312
Mo 20.09. 15:5015655 %1020
1020
983
Uml 2 (4)>= 10000Stark bewölkt (1500)
Wolkig (1100)
 
Nürnberg
312
Mo 20.09. 15:2015655 %1020
1020
983
NNW 2 (4)
WNW - NNO
>= 10000Stark bewölkt (1500)
Wolkig (1100)
 
Nürnberg
312
Mo 20.09. 14:5015655 %1020
1020
983
Uml 1 (2)>= 10000Wolkig (1500)
Wolkig (1100)
 
Nürnberg
312
Mo 20.09. 14:2015655 %1020
1020
983
Uml 2 (3)>= 10000Wolkig (1500)
Wolkig (1000)
 
Nürnberg
312
Mo 20.09. 13:5015655 %1020
1020
983
Uml 1 (2)>= 10000Stark bewölkt (1500)
Leicht bewölkt (1000)
 
Nürnberg
312
Mo 20.09. 13:2015655 %1020
1020
983
Uml 2 (3)>= 10000Stark bewölkt (1500)
Leicht bewölkt (910)
 
Nürnberg
312
Mo 20.09. 12:5014658 %1020
1020
983
Uml 2 (3)>= 10000Stark bewölkt (1400)
Leicht bewölkt (820)
 
Nürnberg
312
Mo 20.09. 12:2013662 %1020
1020
983
O 2 (4)
N - OSO
>= 10000Bedeckt (1200)
Leicht bewölkt (760)
 
Nürnberg
312
Mo 20.09. 11:5012667 %1020
1020
983
NO 2 (4)
NNO - O
>= 10000Bedeckt (1200) 
Nürnberg
312
Mo 20.09. 11:2012667 %1020
1020
983
ONO 2 (3)
N - O
>= 10000Bedeckt (1100) 
Nürnberg
312
Mo 20.09. 10:5011671 %1020
1021
983
ONO 2 (4)
NNO - OSO
>= 10000Bedeckt (1100) 
Nürnberg
312
Mo 20.09. 10:2011776 %1020
1021
983
NO 2 (5)
NNO - O
>= 10000Bedeckt (1100) 
Nürnberg
312
Mo 20.09. 09:5011776 %1019
1020
982
NO 2 (3)
N - ONO
>= 10000Bedeckt (1100) 
Nürnberg
312
Mo 20.09. 09:2011882 %1019
1020
982
Uml 1 (2)>= 10000Bedeckt (1100) 
Nürnberg
312
Mo 20.09. 08:5010782 %1019
1020
982
N 2 (3)
N - NO
>= 10000Bedeckt (1100) 
Nürnberg
312
Mo 20.09. 08:2010782 %1019
1020
982
Uml 1 (2)>= 10000Bedeckt (1200) 
Nürnberg
312
Mo 20.09. 07:5010782 %1019
1020
982
NO 2 (3)>= 10000Bedeckt (1200) 
Nürnberg
312
Mo 20.09. 07:2010782 %1018
1019
981
NNO 2 (3)>= 10000Bedeckt (1200) 
Nürnberg
312
Mo 20.09. 06:5010782 %1018
1019
981
Uml 1 (2)>= 10000Bedeckt (1200) 
Nürnberg
312
Mo 20.09. 06:2010782 %1018
1019
981
NNO 2 (4)>= 10000Bedeckt (1200) 
Nürnberg
312
Mo 20.09. 05:5010782 %1018
1019
981
NNO 2 (3)>= 10000Stark bewölkt (1100) 
Nürnberg
312
Mo 20.09. 05:2010782 %1017
1018
980
OSO 2 (5)>= 10000Stark bewölkt (1100) 
Nürnberg
312
Mo 20.09. 04:5010782 %1017
1018
980
O 2 (4)>= 10000Stark bewölkt (1000) 
Nürnberg
312
Mo 20.09. 04:2011776 %1017
1018
980
ONO 2 (4)>= 10000Stark bewölkt (940) 
Nürnberg
312
Mo 20.09. 03:5011776 %1017
1018
980
ONO 2 (3)
NNO - O
>= 10000Stark bewölkt (940)
Leicht bewölkt (610)
 
Nürnberg
312
Mo 20.09. 03:2011776 %1017
1018
980
Uml 1 (2)>= 10000Stark bewölkt (980)
Leicht bewölkt (610)
 
Nürnberg
312
Mo 20.09. 02:5011776 %1017
1018
980
O 2 (3)
NO - OSO
>= 10000Stark bewölkt (940) 
Nürnberg
312
Mo 20.09. 02:2011882 %1017
1018
980
NO 2 (4)
N - O
>= 10000Stark bewölkt (940) 
Nürnberg
312
Mo 20.09. 01:5011987 %1017
1018
980
NNO 2 (4)>= 10000Stark bewölkt (1000)
Leicht bewölkt (550)
 
Nürnberg
312
Mo 20.09. 01:2011987 %1017
1018
980
NNO 2 (4)>= 10000Stark bewölkt (1000)
Leicht bewölkt (550)
 
Nürnberg
312
Mo 20.09. 00:5011987 %1017
1018
980
N 2 (4)
NNW - NO
>= 10000Stark bewölkt (1100)
Wolkig (550)
 
Nürnberg
312
Mo 20.09. 00:2011987 %1017
1018
980
NNO 2 (4)>= 10000Stark bewölkt (1100)
Leicht bewölkt (550)
 
Nürnberg
312
So 19.09. 23:5012982 %1017
1017
980
N 2 (4)>= 10000Stark bewölkt (1200)
Leicht bewölkt (580)
 
Nürnberg
312
So 19.09. 23:2012982 %1017
1017
980
N 2 (5)>= 10000Stark bewölkt (1200)
Leicht bewölkt (550)
 
Nürnberg
312
So 19.09. 22:5012982 %1017
1017
980
N 2 (4)>= 10000Stark bewölkt (1200)
Leicht bewölkt (550)
 
Nürnberg
312
So 19.09. 22:2012982 %1016
1016
979
N 2 (5)>= 10000Stark bewölkt (1200)
Leicht bewölkt (550)
 
Nürnberg
312
So 19.09. 21:5012982 %1016
1016
979
N 2 (5)>= 10000Stark bewölkt (1300)
Stark bewölkt (520)
 
Nürnberg
312
So 19.09. 21:2012982 %1016
1016
979
N 2 (3)
NW - NNO
>= 10000Stark bewölkt (1200)
Leicht bewölkt (980)
 
Nürnberg
312
So 19.09. 20:5012982 %1016
1016
979
N 2 (3)
NW - NNO
>= 10000Stark bewölkt (1300) 
Nürnberg
312
So 19.09. 20:2013977 %1015
1015
978
NNO 2 (6)
NNW - ONO
>= 10000Wolkig (1200) 
Nürnberg
312
So 19.09. 19:5013977 %1015
1015
978
NNO 3 (8)>= 10000Stark bewölkt (1300) 
Nürnberg
312
So 19.09. 19:20141077 %1015
1015
978
NNO 2 (6)
N - NO
>= 10000Stark bewölkt (1200)
Leicht bewölkt (760)
 
Nürnberg
312
So 19.09. 18:50141077 %1015
1015
978
NNO 2 (6)>= 10000Wolkig (1200)
Leicht bewölkt (760)
 
Nürnberg
312
So 19.09. 18:20141077 %1014
1014
977
NNO 2 (6)>= 10000Wolkig (1400)
Leicht bewölkt (760)
 
Nürnberg
312
So 19.09. 17:50161068 %1014
1014
977
NNO 3 (7)>= 10000Wolkig (1400)
Leicht bewölkt (760)
 
Nürnberg
312
So 19.09. 17:20161068 %1014
1014
977
NO 3 (8)
N - ONO
>= 10000Stark bewölkt (1400)
Leicht bewölkt (760)
 
Nürnberg
312
So 19.09. 16:50161068 %1014
1014
977
NNO 3 (7)
N - ONO
>= 10000Stark bewölkt (1300)
Leicht bewölkt (760)
 
Nürnberg
312
So 19.09. 16:20161172 %1014
1014
977
NNO 3 (8)>= 10000Stark bewölkt (1200)
Leicht bewölkt (760)
 

Altimeter: Einstellung am Altimeter (Höhenmesser), die Höhe 0 muss auf diesen Luftdruckwert zeigen, damit das Gerät die Stationshöhe richtig anzeigt.

NN: Luftdruck reduziert auf "Normal Null", auf Meereshöhe, dieser von der Temperatur abhängige Wert wird bisweilen unkorrekt einfach als "Luftdruck" bezeichnet. Eigentlich nur eine fiktive Größe, die es erlaubt, Stationen auf unterschiedlichen Höhen miteinander zu vergleichen.

Station: Realer Luftdruck an der Station.